Accueil
METAR-TAF:

METAR-TAF

Aéroports :

Morrisville-Stowe State Airport

Morrisville, Vermont, États-Unis

latitude: 44-32-10N, longitude: 072-36-58W, altitude: 223 m

Observation

Le bulletin a été fait il y a 21 minutes, à 16:54 UTC
Vent 4 kt de nord
Température -15°C
Humidité 65%
Pression 1027 hPa
Visibilité: 16.1 km

METAR: KMVL 191654Z AUTO 35004KT 10SM M15/M20 A3034 RMK AO2 SLP292 T11501200 $

Heure: 12:15 (17:15 UTC)


TAF: absent

Observations et prévisions météorologiques de plus de 4000 aéroports (messages METAR et TAF).

Les stations disponibles sont représentées par des disques jaunes et rouges sur la carte.

Passer la souris dessus pour voir le nom de la station.

Cliquer dessus pour voir les observations et prévisions météorologiques.

Pour changer de carte: cliquez sur les boutons verts avec une croix noire pour zoomer, sur le bouton vert avec un tiret pour effectuer un zoom arrière, ou sur les flèches vertes pour les cartes adjacentes.


METAR-TAF: